Preview of NWS' New Version of Forecast
This preview is not operational and should not be used for support decisions.

Terminal Aerodrome Forecast (TAF)

Issued by National Weather Service (NWS)

                            
923 
FTUS42 KMFL 231140
TAFMIA
TAF
KMIA 231140Z 2312/2418 09009KT P6SM VCSH SCT025 SCT040
     FM231400 11015G25KT P6SM SCT025 SCT040 SCT250
     FM240000 09010KT P6SM FEW025 SCT040
     FM241400 11015G25KT P6SM FEW030 SCT040=